createdAt,value
2022-09-20T00:02:54.005Z,17.59
2022-09-20T00:07:56.834Z,16.83
2022-09-20T00:12:59.485Z,14.68
2022-09-20T00:18:02.193Z,15.02
2022-09-20T00:23:04.915Z,17.36
2022-09-20T00:28:08.629Z,17.32
2022-09-20T00:33:11.310Z,15.04
2022-09-20T00:38:14.977Z,15.01
2022-09-20T00:43:18.507Z,17.32
2022-09-20T00:48:30.394Z,17.15
2022-09-20T00:53:37.945Z,15.17
2022-09-20T00:58:46.835Z,16.92
2022-09-20T01:03:50.126Z,18.13
2022-09-20T01:08:56.662Z,16.81
2022-09-20T01:13:59.329Z,14.70
2022-09-20T01:19:14.115Z,15.90
2022-09-20T01:24:26.034Z,17.80
2022-09-20T01:29:34.685Z,16.37
2022-09-20T01:34:47.043Z,14.30
2022-09-20T01:39:57.522Z,14.64
2022-09-20T01:45:07.238Z,17.03
2022-09-20T01:50:30.111Z,17.79
2022-09-20T01:55:44.522Z,15.95
2022-09-20T02:01:15.141Z,15.50
2022-09-20T02:06:46.650Z,17.71
2022-09-20T02:12:10.995Z,16.76
2022-09-20T02:17:26.047Z,14.56
2022-09-20T02:22:44.987Z,14.85
2022-09-20T02:28:12.046Z,17.23
2022-09-20T02:33:33.413Z,17.12
2022-09-20T02:39:14.902Z,14.86
2022-09-20T02:44:37.993Z,15.26
2022-09-20T02:49:59.124Z,17.64
2022-09-20T02:55:17.899Z,17.12
2022-09-20T03:00:28.983Z,14.82
2022-09-20T03:05:58.618Z,14.92
2022-09-20T03:11:20.974Z,17.49
2022-09-20T03:16:52.221Z,17.16
2022-09-20T03:22:05.837Z,15.01
2022-09-20T03:27:46.076Z,16.54
2022-09-20T03:33:13.454Z,16.24
2022-09-20T03:38:31.187Z,15.23
2022-09-20T03:44:09.147Z,17.18
2022-09-20T03:49:51.561Z,15.94
2022-09-20T03:55:02.566Z,14.57
2022-09-20T04:00:22.751Z,17.06
2022-09-20T04:05:43.591Z,16.97
2022-09-20T04:11:04.109Z,14.68
2022-09-20T04:16:43.867Z,15.17
2022-09-20T04:21:55.891Z,17.53
2022-09-20T04:27:39.379Z,17.17
2022-09-20T04:33:02.220Z,14.71
2022-09-20T04:38:10.644Z,16.27
2022-09-20T04:43:41.623Z,17.75
2022-09-20T04:48:53.735Z,16.09
2022-09-20T04:54:18.142Z,14.67
2022-09-20T04:59:48.289Z,16.90
2022-09-20T05:05:10.031Z,16.80
2022-09-20T05:10:38.841Z,14.50
2022-09-20T05:16:20.960Z,15.08
2022-09-20T05:21:36.639Z,17.26
2022-09-20T05:26:58.101Z,15.81
2022-09-20T05:32:25.195Z,15.18
2022-09-20T05:37:59.724Z,17.30
2022-09-20T05:43:08.346Z,16.79
2022-09-20T05:48:15.200Z,14.49
2022-09-20T05:53:56.039Z,15.40
2022-09-20T05:59:32.422Z,17.21
2022-09-20T06:04:42.988Z,15.11
2022-09-20T06:10:17.068Z,15.10
2022-09-20T06:15:39.406Z,17.43
2022-09-20T06:20:45.185Z,17.10
2022-09-20T06:25:56.371Z,14.95
2022-09-20T06:30:59.280Z,15.98
2022-09-20T06:36:28.483Z,17.62
2022-09-20T06:41:34.893Z,15.80
2022-09-20T06:46:38.643Z,15.25
2022-09-20T06:51:42.045Z,17.67
2022-09-20T06:56:47.498Z,16.60
2022-09-20T07:01:50.362Z,14.78
2022-09-20T07:07:06.207Z,15.13
2022-09-20T07:12:12.513Z,17.70
2022-09-20T07:17:15.211Z,17.73
2022-09-20T07:22:18.189Z,15.81
2022-09-20T07:27:21.919Z,16.80
2022-09-20T07:32:24.600Z,18.92
2022-09-20T07:37:27.517Z,17.50
2022-09-20T07:42:30.828Z,16.06
2022-09-20T07:47:37.285Z,16.65
2022-09-20T07:52:39.994Z,19.11
2022-09-20T07:57:42.939Z,18.31
2022-09-20T08:02:46.024Z,18.05
2022-09-20T08:07:52.287Z,19.04
2022-09-20T08:18:17.795Z,19.22
2022-09-20T08:23:23.868Z,19.63
2022-09-20T08:28:26.961Z,17.86
2022-09-20T08:33:30.767Z,18.69
2022-09-20T08:44:17.521Z,18.36
2022-09-20T08:49:28.241Z,18.09
2022-09-20T08:54:33.403Z,20.07
2022-09-20T08:59:36.095Z,18.48
2022-09-20T09:04:38.701Z,17.63
2022-09-20T09:09:44.565Z,20.13
2022-09-20T09:15:06.107Z,20.26
2022-09-20T09:20:23.947Z,18.40
2022-09-20T09:25:34.335Z,17.94
2022-09-20T09:30:38.131Z,20.70
2022-09-20T09:35:41.395Z,19.96
2022-09-20T09:40:56.319Z,18.89
2022-09-20T09:46:21.393Z,18.37
2022-09-20T09:51:26.579Z,17.95
2022-09-20T09:57:05.828Z,19.63
2022-09-20T10:02:29.418Z,21.23
2022-09-20T10:07:45.297Z,19.66
2022-09-20T10:13:10.839Z,19.02
2022-09-20T10:18:27.540Z,18.88
2022-09-20T10:24:02.498Z,18.91
2022-09-20T10:29:06.501Z,18.96
2022-09-20T10:34:27.975Z,18.64
2022-09-20T10:39:35.513Z,18.43
2022-09-20T10:44:46.890Z,18.57
2022-09-20T10:49:50.977Z,18.43
2022-09-20T10:54:59.077Z,17.78
2022-09-20T11:00:25.671Z,17.21
2022-09-20T11:06:02.033Z,16.70
2022-09-20T11:11:13.358Z,16.33
2022-09-20T11:16:43.447Z,16.28
2022-09-20T11:22:08.232Z,16.52
2022-09-20T11:27:20.072Z,17.01
2022-09-20T11:32:30.599Z,17.45
2022-09-20T11:37:40.194Z,18.11
2022-09-20T11:42:43.841Z,18.40
2022-09-20T11:48:00.550Z,18.66
2022-09-20T11:53:45.847Z,19.60
2022-09-20T11:58:52.446Z,20.50
2022-09-20T12:04:20.523Z,21.05
2022-09-20T12:09:35.945Z,21.22
2022-09-20T12:14:39.167Z,22.09
2022-09-20T12:19:41.932Z,22.98
2022-09-20T12:24:45.585Z,23.55
2022-09-20T12:30:03.385Z,23.92
2022-09-20T12:35:39.149Z,24.23
2022-09-20T12:41:08.722Z,24.66
2022-09-20T12:46:41.078Z,25.24
2022-09-20T12:52:09.667Z,24.36
2022-09-20T12:57:19.277Z,22.84
2022-09-20T13:02:52.957Z,22.04
2022-09-20T13:08:02.862Z,21.07
2022-09-20T13:13:15.757Z,20.20
2022-09-20T13:18:19.587Z,19.50
2022-09-20T13:23:27.666Z,19.00
2022-09-20T13:28:37.530Z,18.57
2022-09-20T13:33:40.219Z,18.26
2022-09-20T13:38:43.363Z,18.05
2022-09-20T13:43:49.435Z,17.95
2022-09-20T13:49:12.442Z,17.78
2022-09-20T13:54:27.806Z,17.53
2022-09-20T13:59:40.361Z,17.31
2022-09-20T14:04:44.223Z,17.06
2022-09-20T14:09:46.867Z,16.78
2022-09-20T14:14:51.182Z,16.52
2022-09-20T14:19:54.937Z,16.40
2022-09-20T14:25:22.514Z,16.44
2022-09-20T14:30:36.565Z,16.43
2022-09-20T14:35:47.870Z,16.46
2022-09-20T14:40:51.975Z,16.55
2022-09-20T14:46:04.846Z,18.24
2022-09-20T14:51:18.085Z,21.90
2022-09-20T14:56:34.217Z,21.81
2022-09-20T15:01:56.035Z,21.68
2022-09-20T15:07:03.980Z,21.88
2022-09-20T15:12:13.672Z,22.50
2022-09-20T15:17:18.963Z,23.13
2022-09-20T15:22:21.764Z,23.61
2022-09-20T15:27:28.244Z,24.35
2022-09-20T15:32:31.565Z,23.75
2022-09-20T15:37:34.569Z,22.05
2022-09-20T15:42:38.090Z,20.39
2022-09-20T15:47:40.890Z,19.03
2022-09-20T15:52:43.588Z,17.91
2022-09-20T15:57:47.530Z,17.09
2022-09-20T16:02:50.316Z,16.46
2022-09-20T16:07:52.946Z,15.98
2022-09-20T16:12:55.611Z,15.62
2022-09-20T16:18:17.151Z,16.73
2022-09-20T16:23:24.035Z,19.76
2022-09-20T16:28:28.573Z,19.92
2022-09-20T16:33:33.143Z,18.02
2022-09-20T16:38:37.071Z,16.84
2022-09-20T16:43:39.915Z,16.04
2022-09-20T16:48:42.769Z,15.43
2022-09-20T16:53:45.463Z,16.27
2022-09-20T16:58:49.183Z,19.05
2022-09-20T17:03:51.911Z,19.34
2022-09-20T17:08:58.989Z,17.45
2022-09-20T17:14:02.606Z,16.22
2022-09-20T17:19:13.192Z,15.38
2022-09-20T17:24:17.639Z,16.13
2022-09-20T17:29:20.635Z,18.86
2022-09-20T17:34:25.301Z,18.99
2022-09-20T17:39:28.084Z,16.87
2022-09-20T17:44:33.546Z,15.51
2022-09-20T17:49:38.517Z,16.01
2022-09-20T17:54:41.197Z,18.36
2022-09-20T17:59:44.206Z,18.42
2022-09-20T18:04:47.124Z,16.38
2022-09-20T18:09:49.814Z,15.11
2022-09-20T18:14:53.850Z,15.64
2022-09-20T18:19:56.477Z,18.18
2022-09-20T18:24:59.116Z,18.24
2022-09-20T18:30:02.045Z,16.18
2022-09-20T18:35:06.208Z,14.90
2022-09-20T18:40:09.819Z,16.59
2022-09-20T18:45:12.813Z,18.42
2022-09-20T18:50:15.696Z,18.17
2022-09-20T18:55:19.317Z,16.03
2022-09-20T19:00:22.426Z,14.84
2022-09-20T19:05:36.994Z,16.82
2022-09-20T19:10:53.529Z,18.54
2022-09-20T19:16:05.100Z,18.20
2022-09-20T19:21:28.915Z,15.96
2022-09-20T19:26:38.178Z,14.60
2022-09-20T19:31:41.026Z,15.90
2022-09-20T19:36:52.587Z,18.00
2022-09-20T19:42:08.206Z,18.72
2022-09-20T19:47:36.901Z,16.85
2022-09-20T19:52:39.862Z,15.02
2022-09-20T19:57:47.023Z,15.47
2022-09-20T20:02:50.464Z,17.91
2022-09-20T20:08:17.942Z,18.72
2022-09-20T20:14:03.530Z,16.85
2022-09-20T20:19:30.665Z,15.20
2022-09-20T20:24:39.011Z,17.38
2022-09-20T20:29:41.744Z,17.70
2022-09-20T20:34:44.406Z,15.57
2022-09-20T20:39:47.017Z,15.59
2022-09-20T20:44:49.818Z,17.85
2022-09-20T20:49:53.531Z,18.32
2022-09-20T20:54:57.488Z,16.19
2022-09-20T21:00:00.812Z,15.96
2022-09-20T21:05:04.728Z,18.09
2022-09-20T21:10:09.322Z,17.54
2022-09-20T21:15:12.451Z,15.40
2022-09-20T21:20:15.105Z,15.66
2022-09-20T21:25:17.847Z,17.89
2022-09-20T21:30:20.694Z,17.76
2022-09-20T21:35:24.173Z,15.61
2022-09-20T21:40:26.840Z,15.72
2022-09-20T21:45:29.782Z,17.92
2022-09-20T21:50:32.492Z,17.89
2022-09-20T21:55:35.179Z,15.67
2022-09-20T22:00:37.815Z,15.56
2022-09-20T22:05:40.465Z,17.80
2022-09-20T22:10:43.108Z,17.71
2022-09-20T22:15:46.096Z,15.44
2022-09-20T22:20:48.969Z,15.54
2022-09-20T22:26:09.178Z,17.77
2022-09-20T22:31:17.440Z,17.55
2022-09-20T22:36:23.034Z,15.30
2022-09-20T22:41:26.180Z,15.47
2022-09-20T22:46:30.741Z,17.77
2022-09-20T22:51:34.475Z,17.74
2022-09-20T22:56:38.570Z,15.54
2022-09-20T23:01:43.929Z,15.54
2022-09-20T23:06:55.152Z,17.99
2022-09-20T23:11:58.249Z,17.89
2022-09-20T23:17:00.938Z,15.67
2022-09-20T23:22:03.718Z,15.56
2022-09-20T23:27:06.857Z,17.88
2022-09-20T23:32:09.761Z,17.21
2022-09-20T23:37:12.977Z,15.11
2022-09-20T23:42:15.619Z,15.17
2022-09-20T23:47:18.265Z,17.51
2022-09-20T23:52:20.906Z,18.20
2022-09-20T23:57:23.630Z,16.31
